createdAt,value
2019-03-26T00:02:17.293Z,21.53
2019-03-26T00:04:48.721Z,18.67
2019-03-26T00:07:21.103Z,19.07
2019-03-26T00:09:52.628Z,22.07
2019-03-26T00:12:24.054Z,20.60
2019-03-26T00:14:55.506Z,20.20
2019-03-26T00:17:29.874Z,30.20
2019-03-26T00:20:01.536Z,32.30
2019-03-26T00:22:32.871Z,25.70
2019-03-26T00:25:05.649Z,19.83
2019-03-26T00:27:38.018Z,18.57
2019-03-26T00:30:09.453Z,23.63
2019-03-26T00:32:40.880Z,19.90
2019-03-26T00:35:12.624Z,25.30
2019-03-26T00:37:44.026Z,21.83
2019-03-26T00:40:16.424Z,25.27
2019-03-26T00:42:47.856Z,26.30
2019-03-26T00:45:19.191Z,21.20
2019-03-26T00:47:50.519Z,20.10
2019-03-26T00:50:21.950Z,17.83
2019-03-26T00:52:53.383Z,19.93
2019-03-26T00:55:24.810Z,25.13
2019-03-26T00:57:56.144Z,22.93
2019-03-26T01:00:42.573Z,26.60
2019-03-26T01:03:13.910Z,21.40
2019-03-26T01:05:45.717Z,22.00
2019-03-26T01:08:17.037Z,21.97
2019-03-26T01:10:48.367Z,20.37
2019-03-26T01:13:19.681Z,22.63
2019-03-26T01:15:51.159Z,26.90
2019-03-26T01:18:22.479Z,30.90
2019-03-26T01:20:53.809Z,18.37
2019-03-26T01:23:25.141Z,26.77
2019-03-26T01:25:56.669Z,21.60
2019-03-26T01:28:27.989Z,22.27
2019-03-26T01:30:59.317Z,23.93
2019-03-26T01:33:30.633Z,20.50
2019-03-26T01:36:03.026Z,21.27
2019-03-26T01:38:34.557Z,20.83
2019-03-26T01:41:05.883Z,17.80
2019-03-26T01:43:37.503Z,23.40
2019-03-26T01:46:08.921Z,20.03
2019-03-26T01:48:40.238Z,16.53
2019-03-26T01:51:11.558Z,26.00
2019-03-26T01:53:42.972Z,19.67
2019-03-26T01:56:14.303Z,19.00
2019-03-26T01:58:45.619Z,22.63
2019-03-26T02:01:16.940Z,21.43
2019-03-26T02:03:48.451Z,20.70
2019-03-26T02:06:19.772Z,28.87
2019-03-26T02:08:51.393Z,23.13
2019-03-26T02:11:22.717Z,21.90
2019-03-26T02:13:54.712Z,21.27
2019-03-26T02:16:26.042Z,17.63
2019-03-26T02:18:57.370Z,20.53
2019-03-26T02:21:31.411Z,18.50
2019-03-26T02:24:02.755Z,22.47
2019-03-26T02:26:34.079Z,21.20
2019-03-26T02:29:05.402Z,21.33
2019-03-26T02:31:36.729Z,26.83
2019-03-26T02:34:08.048Z,20.17
2019-03-26T02:36:40.267Z,21.87
2019-03-26T02:39:11.663Z,18.57
2019-03-26T02:41:42.994Z,22.43
2019-03-26T02:44:14.416Z,17.70
2019-03-26T02:46:45.736Z,21.50
2019-03-26T02:49:17.073Z,18.27
2019-03-26T02:51:48.400Z,20.07
2019-03-26T02:54:19.711Z,19.27
2019-03-26T02:56:51.136Z,19.13
2019-03-26T02:59:22.471Z,20.47
2019-03-26T03:01:53.869Z,21.77
2019-03-26T03:04:25.532Z,18.53
2019-03-26T03:06:56.893Z,19.27
2019-03-26T03:09:28.214Z,24.77
2019-03-26T03:11:59.917Z,18.63
2019-03-26T03:14:31.241Z,17.17
2019-03-26T03:17:02.560Z,13.67
2019-03-26T03:19:33.880Z,17.13
2019-03-26T03:22:05.480Z,17.63
2019-03-26T03:24:36.963Z,20.53
2019-03-26T03:27:08.290Z,21.00
2019-03-26T03:29:40.787Z,22.17
2019-03-26T03:32:12.126Z,21.93
2019-03-26T03:34:43.446Z,18.50
2019-03-26T03:37:14.771Z,19.50
2019-03-26T03:39:46.103Z,21.07
2019-03-26T03:42:17.427Z,23.03
2019-03-26T03:44:48.766Z,25.40
2019-03-26T03:47:20.082Z,18.37
2019-03-26T03:49:51.411Z,20.73
2019-03-26T03:52:22.729Z,27.00
2019-03-26T03:54:54.154Z,23.57
2019-03-26T03:57:25.750Z,24.73
2019-03-26T03:59:57.078Z,18.97
2019-03-26T04:02:28.407Z,22.03
2019-03-26T04:04:59.731Z,21.40
2019-03-26T04:07:31.145Z,20.53
2019-03-26T04:10:02.487Z,22.63
2019-03-26T04:12:33.798Z,21.87
2019-03-26T04:15:07.072Z,23.17
2019-03-26T04:17:38.388Z,19.53
2019-03-26T04:20:21.952Z,27.53
2019-03-26T04:22:53.384Z,23.33
2019-03-26T04:25:24.707Z,22.97
2019-03-26T04:27:56.037Z,27.63
2019-03-26T04:30:31.767Z,21.53
2019-03-26T04:33:04.359Z,23.67
2019-03-26T04:35:35.777Z,17.53
2019-03-26T04:38:07.103Z,28.57
2019-03-26T04:40:38.733Z,29.13
2019-03-26T04:43:10.052Z,32.13
2019-03-26T04:45:41.582Z,27.83
2019-03-26T04:48:12.916Z,25.00
2019-03-26T04:50:44.245Z,28.13
2019-03-26T04:53:15.568Z,28.77
2019-03-26T04:55:47.097Z,28.00
2019-03-26T04:58:18.421Z,25.63
2019-03-26T05:00:50.050Z,27.97
2019-03-26T05:03:21.378Z,35.33
2019-03-26T05:05:52.895Z,27.07
2019-03-26T05:08:24.224Z,37.57
2019-03-26T05:10:55.557Z,28.97
2019-03-26T05:13:26.981Z,32.67
2019-03-26T05:15:58.712Z,32.67
2019-03-26T05:18:30.040Z,30.03
2019-03-26T05:21:01.366Z,35.97
2019-03-26T05:23:32.693Z,29.47
2019-03-26T05:26:04.024Z,43.70
2019-03-26T05:28:35.345Z,36.73
2019-03-26T05:31:09.458Z,30.10
2019-03-26T05:33:43.326Z,33.23
2019-03-26T05:36:14.649Z,31.60
2019-03-26T05:38:45.973Z,39.83
2019-03-26T05:41:17.307Z,38.40
2019-03-26T05:43:48.628Z,48.50
2019-03-26T05:46:19.959Z,37.63
2019-03-26T05:48:51.283Z,41.47
2019-03-26T05:51:22.611Z,51.40
2019-03-26T05:53:53.942Z,46.37
2019-03-26T05:56:25.291Z,54.10
2019-03-26T05:58:56.602Z,54.70
2019-03-26T06:01:27.938Z,50.30
2019-03-26T06:03:59.269Z,45.10
2019-03-26T06:06:30.799Z,45.13
2019-03-26T06:09:02.326Z,54.47
2019-03-26T06:11:33.919Z,38.73
2019-03-26T06:14:05.254Z,40.80
2019-03-26T06:16:38.567Z,47.43
2019-03-26T06:19:09.635Z,40.60
2019-03-26T06:21:41.078Z,38.93
2019-03-26T06:24:12.503Z,37.20
2019-03-26T06:26:44.040Z,36.57
2019-03-26T06:29:15.375Z,42.13
2019-03-26T06:31:46.730Z,35.50
2019-03-26T06:34:18.357Z,30.90
2019-03-26T06:36:49.696Z,26.50
2019-03-26T06:39:21.220Z,28.30
2019-03-26T06:41:52.649Z,27.47
2019-03-26T06:44:23.971Z,41.50
2019-03-26T06:46:55.303Z,38.23
2019-03-26T06:49:27.900Z,49.40
2019-03-26T06:52:00.913Z,32.37
2019-03-26T06:54:32.232Z,22.20
2019-03-26T06:57:04.000Z,31.80
2019-03-26T06:59:35.325Z,31.83
2019-03-26T07:02:06.750Z,26.33
2019-03-26T07:04:47.881Z,28.77
2019-03-26T07:07:31.062Z,27.57
2019-03-26T07:09:52.236Z,29.67
2019-03-26T07:12:23.976Z,27.40
2019-03-26T07:14:55.426Z,22.90
2019-03-26T07:17:27.476Z,24.50
2019-03-26T07:19:58.900Z,29.53
2019-03-26T07:22:30.249Z,28.93
2019-03-26T07:25:01.591Z,23.27
2019-03-26T07:27:32.910Z,25.60
2019-03-26T07:30:07.025Z,22.80
2019-03-26T07:32:38.366Z,14.63
2019-03-26T07:35:09.751Z,44.07
2019-03-26T07:37:47.368Z,38.50
2019-03-26T07:40:20.526Z,44.77
2019-03-26T07:42:51.859Z,84.27
2019-03-26T07:45:23.177Z,48.30
2019-03-26T07:47:54.714Z,46.27
2019-03-26T07:50:26.038Z,55.10
2019-03-26T07:52:57.378Z,42.10
2019-03-26T07:55:29.019Z,56.07
2019-03-26T07:58:00.388Z,37.83
2019-03-26T08:00:35.750Z,38.53
2019-03-26T08:03:07.551Z,32.67
2019-03-26T08:05:38.913Z,33.70
2019-03-26T08:08:10.239Z,26.97
2019-03-26T08:10:41.571Z,26.37
2019-03-26T08:13:12.934Z,30.67
2019-03-26T08:15:44.272Z,25.90
2019-03-26T08:18:15.590Z,28.77
2019-03-26T08:20:47.223Z,27.10
2019-03-26T08:23:18.570Z,26.30
2019-03-26T08:25:49.892Z,25.63
2019-03-26T08:28:22.398Z,22.83
2019-03-26T08:30:54.904Z,26.43
2019-03-26T08:33:26.239Z,24.63
2019-03-26T08:35:57.762Z,25.67
2019-03-26T08:38:33.287Z,28.50
2019-03-26T08:41:03.152Z,25.73
2019-03-26T08:43:34.485Z,21.30
2019-03-26T08:46:05.868Z,29.10
2019-03-26T08:48:37.201Z,35.00
2019-03-26T08:51:08.628Z,24.70
2019-03-26T08:53:40.059Z,20.77
2019-03-26T08:56:11.391Z,32.83
2019-03-26T08:58:43.991Z,34.70
2019-03-26T09:01:15.309Z,29.77
2019-03-26T09:03:46.841Z,25.33
2019-03-26T09:06:18.183Z,26.97
2019-03-26T09:08:49.719Z,22.33
2019-03-26T09:11:21.037Z,28.03
2019-03-26T09:13:52.671Z,27.70
2019-03-26T09:16:25.264Z,24.03
2019-03-26T09:18:56.588Z,18.33
2019-03-26T09:21:27.908Z,18.60
2019-03-26T09:23:59.251Z,23.60
2019-03-26T09:26:30.572Z,27.63
2019-03-26T09:29:01.931Z,19.03
2019-03-26T09:31:33.245Z,14.67
2019-03-26T09:34:04.576Z,13.60
2019-03-26T09:36:36.009Z,14.30
2019-03-26T09:39:08.811Z,16.07
2019-03-26T09:41:40.345Z,12.73
2019-03-26T09:44:11.655Z,16.53
2019-03-26T09:46:42.987Z,14.60
2019-03-26T09:49:16.149Z,18.23
2019-03-26T09:51:47.572Z,15.37
2019-03-26T09:54:19.038Z,16.03
2019-03-26T09:56:50.486Z,31.13
2019-03-26T09:59:24.693Z,14.27
2019-03-26T10:01:56.269Z,12.47
2019-03-26T10:04:27.787Z,18.83
2019-03-26T10:07:02.511Z,16.57
2019-03-26T10:09:33.894Z,19.27
2019-03-26T10:12:07.157Z,15.73
2019-03-26T10:14:39.729Z,20.03
2019-03-26T10:17:11.526Z,16.80
2019-03-26T10:19:42.948Z,22.23
2019-03-26T10:22:14.441Z,15.83
2019-03-26T10:24:45.757Z,15.00
2019-03-26T10:27:17.080Z,22.57
2019-03-26T10:29:48.416Z,18.03
2019-03-26T10:32:19.738Z,21.30
2019-03-26T10:34:51.055Z,15.80
2019-03-26T10:37:22.372Z,14.03
2019-03-26T10:39:53.699Z,11.83
2019-03-26T10:42:25.119Z,16.50
2019-03-26T10:44:56.841Z,21.97
2019-03-26T10:47:28.164Z,19.17
2019-03-26T10:49:59.784Z,24.13
2019-03-26T10:52:34.392Z,18.57
2019-03-26T10:55:06.177Z,16.30
2019-03-26T10:57:37.501Z,14.87
2019-03-26T11:00:08.918Z,13.83
2019-03-26T11:02:40.264Z,11.97
2019-03-26T11:05:11.573Z,12.40
2019-03-26T11:07:42.986Z,12.67
2019-03-26T11:10:15.358Z,12.07
2019-03-26T11:12:46.677Z,16.17
2019-03-26T11:15:18.298Z,13.57
2019-03-26T11:17:49.617Z,14.40
2019-03-26T11:20:22.312Z,12.80
2019-03-26T11:22:53.706Z,11.57
2019-03-26T11:25:25.027Z,61.83
2019-03-26T11:27:56.621Z,17.33
2019-03-26T11:30:27.940Z,23.70
2019-03-26T11:32:59.261Z,18.53
2019-03-26T11:35:30.579Z,16.13
2019-03-26T11:38:02.317Z,22.67
2019-03-26T11:40:33.640Z,22.57
2019-03-26T11:43:04.963Z,24.73
2019-03-26T11:45:36.281Z,21.43
2019-03-26T11:48:09.261Z,17.03
2019-03-26T11:50:40.781Z,10.37
2019-03-26T11:53:12.205Z,13.47
2019-03-26T11:55:43.525Z,18.70
2019-03-26T11:58:15.123Z,22.97
2019-03-26T12:00:46.469Z,16.67
2019-03-26T12:03:18.003Z,17.17
2019-03-26T12:05:49.407Z,11.17
2019-03-26T12:08:20.743Z,13.03
2019-03-26T12:10:52.065Z,16.33
2019-03-26T12:13:23.503Z,13.17
2019-03-26T12:15:54.915Z,14.10
2019-03-26T12:18:26.257Z,13.80
2019-03-26T12:20:57.622Z,11.93
2019-03-26T12:23:28.966Z,10.27
2019-03-26T12:26:00.500Z,15.67
2019-03-26T12:28:31.835Z,14.57
2019-03-26T12:31:04.017Z,13.67
2019-03-26T12:33:36.430Z,12.47
2019-03-26T12:36:07.692Z,16.20
2019-03-26T12:38:39.236Z,82.87
2019-03-26T12:41:10.561Z,12.40
2019-03-26T12:43:42.174Z,9.63
2019-03-26T12:46:13.582Z,13.67
2019-03-26T12:48:44.915Z,16.17
2019-03-26T12:51:16.232Z,18.20
2019-03-26T12:53:47.596Z,13.50
2019-03-26T12:56:18.921Z,16.07
2019-03-26T12:58:50.234Z,6.97
2019-03-26T13:01:21.545Z,14.27
2019-03-26T13:03:52.858Z,7.53
2019-03-26T13:06:24.171Z,7.93
2019-03-26T13:08:55.540Z,9.73
2019-03-26T13:11:26.883Z,14.30
2019-03-26T13:13:59.909Z,12.87
2019-03-26T13:19:20.741Z,18.47
2019-03-26T13:21:52.364Z,16.60
2019-03-26T13:24:24.734Z,10.00
2019-03-26T13:27:00.074Z,18.07
2019-03-26T13:29:31.395Z,16.70
2019-03-26T13:32:02.720Z,12.83
2019-03-26T13:34:34.048Z,11.20
2019-03-26T13:37:05.656Z,6.07
2019-03-26T13:39:43.077Z,17.40
2019-03-26T13:42:10.082Z,14.23
2019-03-26T13:44:42.971Z,15.00
2019-03-26T13:47:16.196Z,9.27
2019-03-26T13:49:49.395Z,8.47
2019-03-26T13:52:20.705Z,24.40
2019-03-26T13:54:52.027Z,19.63
2019-03-26T13:57:23.353Z,13.87
2019-03-26T13:59:55.036Z,18.93
2019-03-26T14:02:26.653Z,11.93
2019-03-26T14:04:58.377Z,17.97
2019-03-26T14:07:31.131Z,13.50
2019-03-26T14:10:02.455Z,15.47
2019-03-26T14:12:34.444Z,17.17
2019-03-26T14:15:07.340Z,19.73
2019-03-26T14:17:38.659Z,11.57
2019-03-26T14:20:14.591Z,24.00
2019-03-26T14:22:45.964Z,16.20
2019-03-26T14:25:17.683Z,15.03
2019-03-26T14:27:49.435Z,20.17
2019-03-26T14:30:36.370Z,22.77
2019-03-26T14:33:08.014Z,47.13
2019-03-26T14:35:39.529Z,36.77
2019-03-26T14:38:10.909Z,22.07
2019-03-26T14:40:53.893Z,13.23
2019-03-26T14:43:15.377Z,26.30
2019-03-26T14:45:48.315Z,23.53
2019-03-26T14:48:21.409Z,13.97
2019-03-26T14:51:04.126Z,24.30
2019-03-26T14:53:40.019Z,13.53
2019-03-26T14:56:16.356Z,26.20
2019-03-26T14:58:48.661Z,18.73
2019-03-26T15:01:21.742Z,22.30
2019-03-26T15:03:57.289Z,34.27
2019-03-26T15:06:30.055Z,48.33
2019-03-26T15:09:12.956Z,39.13
2019-03-26T15:11:57.529Z,62.37
2019-03-26T15:14:36.643Z,62.37
2019-03-26T15:17:11.010Z,111.33
2019-03-26T15:19:42.350Z,46.43
2019-03-26T15:22:13.679Z,46.77
2019-03-26T15:24:45.087Z,22.23
2019-03-26T15:27:17.780Z,16.10
2019-03-26T15:29:49.111Z,18.47
2019-03-26T15:32:20.439Z,22.37
2019-03-26T15:34:51.779Z,33.77
2019-03-26T15:37:24.384Z,67.37
2019-03-26T15:39:55.814Z,10.57
2019-03-26T15:42:27.279Z,23.73
2019-03-26T15:44:58.616Z,22.23
2019-03-26T15:47:29.973Z,23.50
2019-03-26T15:50:01.318Z,31.83
2019-03-26T15:52:35.005Z,29.03
2019-03-26T15:55:14.589Z,28.33
2019-03-26T15:57:56.290Z,40.13
2019-03-26T16:00:33.024Z,38.53
2019-03-26T16:03:05.590Z,52.43
2019-03-26T16:05:42.278Z,43.40
2019-03-26T16:08:13.904Z,84.13
2019-03-26T16:10:45.243Z,45.17
2019-03-26T16:13:16.602Z,33.80
2019-03-26T16:15:47.935Z,39.07
2019-03-26T16:18:20.392Z,107.03
2019-03-26T16:20:51.746Z,95.40
2019-03-26T16:23:25.092Z,138.43
2019-03-26T16:25:56.128Z,174.13
2019-03-26T16:28:27.470Z,104.60
2019-03-26T16:31:06.842Z,80.50
2019-03-26T16:33:38.448Z,80.10
2019-03-26T16:36:10.919Z,41.00
2019-03-26T16:38:42.244Z,65.20
2019-03-26T16:41:14.312Z,37.00
2019-03-26T16:43:48.215Z,122.40
2019-03-26T16:46:22.472Z,23.53
2019-03-26T16:48:55.460Z,14.90
2019-03-26T16:51:26.828Z,38.73
2019-03-26T16:53:58.167Z,78.67
2019-03-26T16:56:29.551Z,49.90
2019-03-26T16:59:00.867Z,78.50
2019-03-26T17:01:32.642Z,71.67
2019-03-26T17:04:03.985Z,191.90
2019-03-26T17:06:35.361Z,103.40
2019-03-26T17:09:07.977Z,59.63
2019-03-26T17:11:39.316Z,33.10
2019-03-26T17:14:11.518Z,42.83
2019-03-26T17:16:42.882Z,29.43
2019-03-26T17:19:14.895Z,36.37
2019-03-26T17:21:47.488Z,32.97
2019-03-26T17:24:19.043Z,61.87
2019-03-26T17:26:50.410Z,70.07
2019-03-26T17:29:21.800Z,41.60
2019-03-26T17:31:55.862Z,68.47
2019-03-26T17:34:27.376Z,74.70
2019-03-26T17:36:58.763Z,55.20
2019-03-26T17:39:31.613Z,97.83
2019-03-26T17:42:16.215Z,45.17
2019-03-26T17:44:36.495Z,58.70
2019-03-26T17:47:07.988Z,337.00
2019-03-26T17:49:41.705Z,124.10
2019-03-26T17:52:13.383Z,31.77
2019-03-26T17:54:44.723Z,102.77
2019-03-26T17:57:16.084Z,101.93
2019-03-26T17:59:50.166Z,17.80
2019-03-26T18:02:21.539Z,32.50
2019-03-26T18:04:52.912Z,31.57
2019-03-26T18:07:24.970Z,45.90
2019-03-26T18:09:56.608Z,34.57
2019-03-26T18:12:30.991Z,33.10
2019-03-26T18:15:05.023Z,20.90
2019-03-26T18:17:36.428Z,28.20
2019-03-26T18:20:09.373Z,26.13
2019-03-26T18:22:40.798Z,40.63
2019-03-26T18:25:12.334Z,24.23
2019-03-26T18:27:43.808Z,24.87
2019-03-26T18:30:15.367Z,35.70
2019-03-26T18:32:49.191Z,35.43
2019-03-26T18:35:21.826Z,39.90
2019-03-26T18:37:53.175Z,23.37
2019-03-26T18:40:25.008Z,20.17
2019-03-26T18:42:58.914Z,20.20
2019-03-26T18:45:30.471Z,8.10
2019-03-26T18:48:09.011Z,15.20
2019-03-26T18:50:50.911Z,12.57
2019-03-26T18:53:23.667Z,15.33
2019-03-26T18:56:04.238Z,15.83
2019-03-26T18:58:45.230Z,23.30
2019-03-26T19:01:27.404Z,20.03
2019-03-26T19:04:03.189Z,16.27
2019-03-26T19:06:41.298Z,18.03
2019-03-26T19:09:15.207Z,34.67
2019-03-26T19:11:46.952Z,20.27
2019-03-26T19:14:21.474Z,29.30
2019-03-26T19:16:53.410Z,140.13
2019-03-26T19:19:29.844Z,15.47
2019-03-26T19:22:01.215Z,20.67
2019-03-26T19:24:34.303Z,67.90
2019-03-26T19:27:06.600Z,35.00
2019-03-26T19:29:40.313Z,23.47
2019-03-26T19:32:13.325Z,18.27
2019-03-26T19:34:46.831Z,27.17
2019-03-26T19:37:20.020Z,14.20
2019-03-26T19:39:54.531Z,15.33
2019-03-26T19:42:26.484Z,14.33
2019-03-26T19:44:59.450Z,28.57
2019-03-26T19:47:30.943Z,24.30
2019-03-26T19:50:02.723Z,17.10
2019-03-26T19:52:35.242Z,19.67
2019-03-26T19:55:08.120Z,36.30
2019-03-26T19:57:46.014Z,14.30
2019-03-26T20:00:19.650Z,24.70
2019-03-26T20:02:52.626Z,20.37
2019-03-26T20:05:23.974Z,22.10
2019-03-26T20:07:55.315Z,22.50
2019-03-26T20:10:29.861Z,32.07
2019-03-26T20:13:03.060Z,27.73
2019-03-26T20:15:37.388Z,24.10
2019-03-26T20:18:11.905Z,22.73
2019-03-26T20:20:45.126Z,25.37
2019-03-26T20:23:24.843Z,23.53
2019-03-26T20:25:52.162Z,9.90
2019-03-26T20:28:28.923Z,15.30
2019-03-26T20:31:01.791Z,12.37
2019-03-26T20:33:33.175Z,13.33
2019-03-26T20:36:06.381Z,12.43
2019-03-26T20:38:43.072Z,9.10
2019-03-26T20:41:16.231Z,7.67
2019-03-26T20:43:51.361Z,11.77
2019-03-26T20:46:22.693Z,8.20
2019-03-26T20:48:54.029Z,17.90
2019-03-26T20:51:34.351Z,10.47
2019-03-26T20:54:07.605Z,9.10
2019-03-26T20:56:40.826Z,13.47
2019-03-26T20:59:12.074Z,16.77
2019-03-26T21:01:45.672Z,18.47
2019-03-26T21:04:20.418Z,12.97
2019-03-26T21:06:58.172Z,17.23
2019-03-26T21:09:31.081Z,19.70
2019-03-26T21:12:02.627Z,18.10
2019-03-26T21:14:33.985Z,21.27
2019-03-26T21:17:05.411Z,21.70
2019-03-26T21:19:37.123Z,31.40
2019-03-26T21:22:12.756Z,26.70
2019-03-26T21:24:47.155Z,26.37
2019-03-26T21:27:23.239Z,40.03
2019-03-26T21:30:09.764Z,32.30
2019-03-26T21:32:31.143Z,49.50
2019-03-26T21:35:07.367Z,54.97
2019-03-26T21:37:42.814Z,81.07
2019-03-26T21:40:15.795Z,96.90
2019-03-26T21:42:47.904Z,157.40
2019-03-26T21:45:29.971Z,159.27
2019-03-26T21:48:03.927Z,82.23
2019-03-26T21:50:37.927Z,63.17
2019-03-26T21:53:13.349Z,61.77
2019-03-26T21:55:48.744Z,71.43
2019-03-26T21:58:21.667Z,68.17
2019-03-26T22:00:56.044Z,64.63
2019-03-26T22:03:32.761Z,68.43
2019-03-26T22:06:04.098Z,61.00
2019-03-26T22:08:38.947Z,65.50
2019-03-26T22:11:11.749Z,63.97
2019-03-26T22:13:45.900Z,62.13
2019-03-26T22:16:22.977Z,54.77
2019-03-26T22:18:57.866Z,60.40
2019-03-26T22:21:29.191Z,58.60
2019-03-26T22:24:00.542Z,60.90
2019-03-26T22:26:33.519Z,49.43
2019-03-26T22:29:04.841Z,67.60
2019-03-26T22:31:36.188Z,52.40
2019-03-26T22:34:08.109Z,52.20
2019-03-26T22:36:39.556Z,48.13
2019-03-26T22:39:12.138Z,43.77
2019-03-26T22:41:43.796Z,43.77
2019-03-26T22:44:15.222Z,36.07
2019-03-26T22:46:46.580Z,42.07
2019-03-26T22:49:18.208Z,36.53
2019-03-26T22:51:49.582Z,50.13
2019-03-26T22:54:20.951Z,100.80
2019-03-26T22:56:52.319Z,65.23
2019-03-26T22:59:27.009Z,43.33
2019-03-26T23:01:59.761Z,34.87
2019-03-26T23:04:31.108Z,37.00
2019-03-26T23:07:03.027Z,33.37
2019-03-26T23:09:34.345Z,34.40
2019-03-26T23:12:05.710Z,65.67
2019-03-26T23:14:45.084Z,85.87
2019-03-26T23:17:10.322Z,121.53
2019-03-26T23:19:41.629Z,131.03
2019-03-26T23:22:13.180Z,100.40
2019-03-26T23:24:44.520Z,93.57
2019-03-26T23:27:15.858Z,127.53
2019-03-26T23:29:47.201Z,80.63
2019-03-26T23:32:19.189Z,116.17
2019-03-26T23:34:50.715Z,126.07
2019-03-26T23:37:22.070Z,123.83
2019-03-26T23:39:54.501Z,119.70
2019-03-26T23:42:26.330Z,110.50
2019-03-26T23:44:58.815Z,118.10
2019-03-26T23:47:30.503Z,108.27
2019-03-26T23:50:01.834Z,131.73
2019-03-26T23:52:33.391Z,143.57
2019-03-26T23:55:06.802Z,166.43
2019-03-26T23:57:38.475Z,177.93
